Time;durP1;ratioP1;P1;durP2;ratioP2;P2;SDS_P1;SDS_P2;PMS_P1;PMS_P2;Temp;Humidity;BMP_temperature;BMP_pressure;BME280_temperature;BME280_humidity;BME280_pressure;Samples;Min_cycle;Max_cycle;Signal;HPM_P1;HPM_P2
2022/03/07 00:02:20;;;;;;;7.15;2.70;;;3.60;99.90;;;;;;5044146;28;20060;-64
2022/03/07 00:04:46;;;;;;;9.02;2.75;;;3.60;99.90;;;;;;5027109;28;20504;-64
2022/03/07 00:07:11;;;;;;;5.63;3.03;;;3.50;99.90;;;;;;5028328;28;20057;-64
2022/03/07 00:09:37;;;;;;;9.70;2.80;;;3.60;99.90;;;;;;5040882;28;20378;-64
2022/03/07 00:12:03;;;;;;;8.65;2.55;;;3.50;99.90;;;;;;5030561;28;20042;-64
2022/03/07 00:14:29;;;;;;;14.00;3.75;;;3.50;99.90;;;;;;5027107;28;20678;-64
2022/03/07 00:16:54;;;;;;;11.50;3.03;;;3.50;99.90;;;;;;5028804;28;20041;-64
2022/03/07 00:19:20;;;;;;;11.38;3.42;;;3.50;99.90;;;;;;5031723;28;20492;-64
2022/03/07 00:21:45;;;;;;;9.57;3.08;;;3.40;99.90;;;;;;5038963;28;20053;-64
2022/03/07 00:24:11;;;;;;;10.35;3.70;;;3.40;99.90;;;;;;5047347;28;20534;-63
2022/03/07 00:26:36;;;;;;;6.20;3.25;;;3.40;99.90;;;;;;5032564;28;20125;-63
2022/03/07 00:29:02;;;;;;;10.45;2.67;;;3.30;99.90;;;;;;5034589;28;20041;-64
2022/03/07 00:31:28;;;;;;;10.40;3.30;;;3.30;99.90;;;;;;5047901;28;20091;-63
2022/03/07 00:33:54;;;;;;;14.23;3.40;;;3.30;99.90;;;;;;5037309;28;20042;-64
2022/03/07 00:36:20;;;;;;;11.23;3.10;;;3.30;99.90;;;;;;5044970;28;20090;-64
2022/03/07 00:38:46;;;;;;;9.25;3.78;;;3.30;99.90;;;;;;5047948;28;20087;-64
2022/03/07 00:41:12;;;;;;;8.18;2.92;;;3.30;99.90;;;;;;5040563;28;20132;-64
2022/03/07 00:43:39;;;;;;;10.48;4.28;;;3.20;99.90;;;;;;5028477;28;20124;-63
2022/03/07 00:46:05;;;;;;;9.90;3.38;;;3.20;99.90;;;;;;5034974;28;20102;-64
2022/03/07 00:48:31;;;;;;;10.32;4.32;;;3.10;99.90;;;;;;5040450;28;20029;-64
2022/03/07 00:50:56;;;;;;;10.15;3.55;;;3.10;99.90;;;;;;5046485;28;20443;-64
2022/03/07 00:53:25;;;;;;;10.88;3.47;;;3.00;99.90;;;;;;5040881;28;20084;-64
2022/03/07 00:55:54;;;;;;;16.38;3.92;;;3.00;99.90;;;;;;5031524;28;20041;-64
2022/03/07 00:58:22;;;;;;;11.68;4.45;;;3.00;99.90;;;;;;5043864;28;20090;-64
2022/03/07 01:00:48;;;;;;;9.50;3.60;;;2.90;99.90;;;;;;5050793;28;20102;-64
2022/03/07 01:03:14;;;;;;;12.52;3.67;;;2.80;99.90;;;;;;5039318;28;20485;-64
2022/03/07 01:05:41;;;;;;;11.05;4.45;;;2.90;99.90;;;;;;5047319;28;20073;-64
2022/03/07 01:08:07;;;;;;;13.70;3.65;;;2.80;99.90;;;;;;5035704;28;20057;-64
2022/03/07 01:10:34;;;;;;;10.27;3.03;;;2.80;99.90;;;;;;5042916;28;20048;-65
2022/03/07 01:12:59;;;;;;;8.23;3.13;;;2.80;99.90;;;;;;5051540;28;20040;-64
2022/03/07 01:15:25;;;;;;;10.93;4.05;;;2.80;99.90;;;;;;5050240;28;20397;-64
2022/03/07 01:17:50;;;;;;;10.10;3.90;;;2.80;99.90;;;;;;5033146;28;20049;-64
2022/03/07 01:20:16;;;;;;;6.50;3.13;;;2.60;99.90;;;;;;5038118;28;20132;-64
2022/03/07 01:22:41;;;;;;;10.02;3.90;;;2.60;99.90;;;;;;5031463;28;20130;-64
2022/03/07 01:25:08;;;;;;;7.88;3.63;;;2.70;99.90;;;;;;5036979;28;20079;-64
2022/03/07 01:27:34;;;;;;;5.28;3.42;;;2.60;99.90;;;;;;5051434;28;20045;-64
2022/03/07 01:30:00;;;;;;;8.75;3.30;;;2.60;99.90;;;;;;5032419;28;20103;-64
2022/03/07 01:32:26;;;;;;;9.95;3.85;;;2.60;99.90;;;;;;5047471;28;20658;-64
2022/03/07 01:34:52;;;;;;;8.25;3.72;;;2.60;99.90;;;;;;5043575;28;20099;-64
2022/03/07 01:37:18;;;;;;;14.75;4.28;;;2.60;99.90;;;;;;5039600;28;20067;-64
2022/03/07 01:39:44;;;;;;;12.13;4.13;;;2.60;99.90;;;;;;5051008;28;20485;-64
2022/03/07 01:42:09;;;;;;;8.25;3.30;;;2.60;99.90;;;;;;5043657;28;20084;-64
2022/03/07 01:44:37;;;;;;;8.30;2.85;;;2.50;99.90;;;;;;5034700;28;20377;-64
2022/03/07 01:47:06;;;;;;;14.80;4.18;;;2.60;99.90;;;;;;5041500;28;20086;-64
2022/03/07 01:49:31;;;;;;;9.43;3.55;;;2.50;99.90;;;;;;5044729;28;20479;-64
2022/03/07 01:51:57;;;;;;;14.07;3.17;;;2.50;99.90;;;;;;5049926;28;20053;-63
2022/03/07 01:54:24;;;;;;;14.52;4.20;;;2.50;99.90;;;;;;5039745;28;20048;-63
2022/03/07 01:56:51;;;;;;;12.23;4.47;;;2.40;99.90;;;;;;5039336;28;20119;-64
2022/03/07 01:59:22;;;;;;;13.38;3.80;;;2.30;99.90;;;;;;5042655;28;20044;-64
2022/03/07 02:01:48;;;;;;;7.57;3.70;;;2.30;99.90;;;;;;5039447;28;20060;-63
2022/03/07 02:04:14;;;;;;;5.13;2.35;;;2.30;99.90;;;;;;5037684;28;20482;-64
2022/03/07 02:06:40;;;;;;;8.93;3.47;;;2.40;99.90;;;;;;5038345;28;20048;-63
2022/03/07 02:09:10;;;;;;;8.05;2.78;;;2.40;99.90;;;;;;5040138;28;20041;-63
2022/03/07 02:11:36;;;;;;;11.27;3.58;;;2.40;99.90;;;;;;5049865;28;20049;-64
2022/03/07 02:14:17;;;;;;;8.73;2.42;;;2.40;99.90;;;;;;5030315;28;20052;-63
2022/03/07 02:16:44;;;;;;;6.40;2.72;;;2.40;99.90;;;;;;5031065;28;20462;-64
2022/03/07 02:19:10;;;;;;;6.72;2.63;;;2.40;99.90;;;;;;5039376;28;20077;-63
2022/03/07 02:21:39;;;;;;;7.18;2.92;;;2.30;99.90;;;;;;5035429;28;20111;-63
2022/03/07 02:24:05;;;;;;;10.35;3.95;;;2.30;99.90;;;;;;5038378;28;20045;-63
2022/03/07 02:26:31;;;;;;;7.70;3.15;;;2.20;99.90;;;;;;5049594;28;20032;-63
2022/03/07 02:28:56;;;;;;;11.55;2.97;;;2.30;99.90;;;;;;5043763;28;20107;-63
2022/03/07 02:31:22;;;;;;;9.65;3.80;;;2.30;99.90;;;;;;5043832;28;20077;-64
2022/03/07 02:33:48;;;;;;;11.82;4.05;;;2.30;99.90;;;;;;5039972;28;20139;-64
2022/03/07 02:36:14;;;;;;;8.38;3.22;;;2.30;99.90;;;;;;5042116;28;20048;-64
2022/03/07 02:38:39;;;;;;;12.35;3.55;;;2.30;99.90;;;;;;5048150;28;20529;-64
2022/03/07 02:41:05;;;;;;;9.27;3.50;;;2.20;99.90;;;;;;5049096;28;20120;-64
2022/03/07 02:43:31;;;;;;;6.40;3.13;;;2.30;99.90;;;;;;5038900;28;20083;-63
2022/03/07 02:45:58;;;;;;;5.72;3.22;;;2.20;99.90;;;;;;5045067;28;20045;-64
2022/03/07 02:48:24;;;;;;;9.70;3.65;;;2.20;99.90;;;;;;5032942;28;20053;-63
2022/03/07 02:50:50;;;;;;;10.70;4.43;;;2.10;99.90;;;;;;5044164;28;20064;-63
2022/03/07 02:53:16;;;;;;;7.50;3.83;;;2.10;99.90;;;;;;5044117;28;20059;-63
2022/03/07 02:55:42;;;;;;;8.68;3.85;;;2.10;99.90;;;;;;5043308;28;20045;-64
2022/03/07 02:58:07;;;;;;;6.00;3.72;;;2.10;99.90;;;;;;5049171;28;20460;-63
2022/03/07 03:00:33;;;;;;;9.38;3.38;;;2.10;99.90;;;;;;5039500;28;20046;-64
2022/03/07 03:02:58;;;;;;;9.02;3.67;;;2.00;99.90;;;;;;5031085;28;20046;-63
2022/03/07 03:05:25;;;;;;;11.68;4.13;;;2.10;99.90;;;;;;5048940;28;20055;-63
2022/03/07 03:07:53;;;;;;;12.95;4.15;;;2.00;99.90;;;;;;5040452;28;20068;-63
2022/03/07 03:10:20;;;;;;;11.70;4.03;;;2.00;99.90;;;;;;5032468;28;20049;-63
2022/03/07 03:12:46;;;;;;;15.98;4.25;;;2.00;99.90;;;;;;5049637;28;20542;-63
2022/03/07 03:15:12;;;;;;;22.40;4.65;;;2.00;99.90;;;;;;5046013;28;20362;-63
2022/03/07 03:17:42;;;;;;;6.57;3.60;;;2.00;99.90;;;;;;5032820;28;20069;-64
2022/03/07 03:20:11;;;;;;;8.23;3.45;;;2.00;99.90;;;;;;5042357;28;20080;-64
2022/03/07 03:22:37;;;;;;;8.35;4.10;;;1.90;99.90;;;;;;5031326;28;20501;-64
2022/03/07 03:25:04;;;;;;;10.27;4.07;;;2.00;99.90;;;;;;5045998;28;20049;-63
2022/03/07 03:27:29;;;;;;;8.32;3.85;;;2.00;99.90;;;;;;5028176;28;20055;-63
2022/03/07 03:29:55;;;;;;;8.30;3.42;;;1.90;99.90;;;;;;5028312;28;20106;-63
2022/03/07 03:32:20;;;;;;;10.23;3.28;;;1.90;99.90;;;;;;5044247;28;20473;-64
2022/03/07 03:34:46;;;;;;;8.38;3.55;;;1.90;99.90;;;;;;5047921;28;20037;-64
2022/03/07 03:37:11;;;;;;;9.52;3.97;;;1.80;99.90;;;;;;5036417;28;20034;-63
2022/03/07 03:39:37;;;;;;;8.30;3.40;;;1.90;99.90;;;;;;5044404;28;20095;-63
2022/03/07 03:42:03;;;;;;;10.85;3.55;;;1.90;99.90;;;;;;5047924;28;20072;-64
2022/03/07 03:44:28;;;;;;;7.80;2.97;;;1.90;99.90;;;;;;5035589;28;20041;-63
2022/03/07 03:46:54;;;;;;;8.18;3.55;;;2.00;99.90;;;;;;5043904;28;20052;-63
2022/03/07 03:49:19;;;;;;;9.57;4.00;;;1.90;99.90;;;;;;5046134;28;20045;-64
2022/03/07 03:51:45;;;;;;;9.73;3.58;;;1.80;99.90;;;;;;5040705;28;20498;-63
2022/03/07 03:54:11;;;;;;;7.85;3.80;;;1.80;99.90;;;;;;5030070;28;20050;-63
2022/03/07 03:56:37;;;;;;;7.07;3.72;;;1.80;99.90;;;;;;5037196;28;20041;-64
2022/03/07 03:59:02;;;;;;;8.43;3.33;;;1.80;99.90;;;;;;5037707;28;20063;-63
2022/03/07 04:01:28;;;;;;;8.70;3.35;;;1.80;99.90;;;;;;5048041;28;20037;-64
2022/03/07 04:03:54;;;;;;;8.05;3.03;;;1.80;99.90;;;;;;5035909;28;20156;-64
2022/03/07 04:06:19;;;;;;;6.18;3.35;;;1.80;99.90;;;;;;5038594;28;20032;-63
2022/03/07 04:08:50;;;;;;;6.57;3.10;;;1.80;99.90;;;;;;5047042;28;20053;-63
2022/03/07 04:11:16;;;;;;;5.32;3.35;;;1.80;99.90;;;;;;5046930;28;20095;-63
2022/03/07 04:13:42;;;;;;;5.43;2.97;;;1.80;99.90;;;;;;5034881;28;20480;-63
2022/03/07 04:16:07;;;;;;;10.63;3.40;;;1.70;99.90;;;;;;5046806;28;20109;-63
2022/03/07 04:18:33;;;;;;;4.35;2.63;;;1.70;99.90;;;;;;5042865;28;20075;-63
2022/03/07 04:20:59;;;;;;;10.15;3.55;;;1.70;99.90;;;;;;5036055;28;20521;-63
2022/03/07 04:23:24;;;;;;;7.53;2.83;;;1.60;99.90;;;;;;5028254;28;20099;-64
2022/03/07 04:25:50;;;;;;;6.40;2.53;;;1.60;99.90;;;;;;5035115;28;20048;-64
2022/03/07 04:28:16;;;;;;;11.30;3.58;;;1.60;99.90;;;;;;5037927;28;20076;-64
2022/03/07 04:30:42;;;;;;;6.18;2.85;;;1.60;99.90;;;;;;5032506;28;20537;-63
2022/03/07 04:33:08;;;;;;;7.25;3.20;;;1.60;99.90;;;;;;5047681;28;20131;-64
2022/03/07 04:35:34;;;;;;;11.98;3.20;;;1.60;99.90;;;;;;5050519;28;20053;-63
2022/03/07 04:38:01;;;;;;;8.82;3.63;;;1.60;99.90;;;;;;5039873;28;20659;-64
2022/03/07 04:40:28;;;;;;;8.27;3.15;;;1.60;99.90;;;;;;5048321;28;20500;-63
2022/03/07 04:42:56;;;;;;;10.05;3.78;;;1.60;99.90;;;;;;5052578;28;20037;-64
2022/03/07 04:45:22;;;;;;;7.85;3.22;;;1.60;99.90;;;;;;5042598;28;20048;-64
2022/03/07 04:47:47;;;;;;;8.02;3.25;;;1.50;99.90;;;;;;5040811;28;20382;-63
2022/03/07 04:50:13;;;;;;;7.20;3.20;;;1.60;99.90;;;;;;5051647;28;20047;-64
2022/03/07 04:52:41;;;;;;;10.32;3.75;;;1.50;99.90;;;;;;5041579;28;20111;-64
2022/03/07 04:55:08;;;;;;;10.45;4.45;;;1.50;99.90;;;;;;5041586;28;20049;-64
2022/03/07 04:57:33;;;;;;;8.35;3.90;;;1.50;99.90;;;;;;5051939;28;20033;-63
2022/03/07 04:59:59;;;;;;;6.88;3.33;;;1.60;99.90;;;;;;5040118;28;20102;-64
2022/03/07 05:02:24;;;;;;;7.03;3.92;;;1.60;99.90;;;;;;5050936;28;20049;-64
2022/03/07 05:04:50;;;;;;;9.50;4.03;;;1.60;99.90;;;;;;5051890;28;20040;-63
2022/03/07 05:07:15;;;;;;;6.75;3.53;;;1.70;99.90;;;;;;5038392;28;20037;-64
2022/03/07 05:09:41;;;;;;;9.43;4.70;;;1.70;99.90;;;;;;5038627;28;20048;-64
2022/03/07 05:12:07;;;;;;;13.13;3.95;;;1.70;99.90;;;;;;5047017;28;20055;-64
2022/03/07 05:14:32;;;;;;;5.05;3.55;;;1.70;99.90;;;;;;5038319;28;20048;-64
2022/03/07 05:16:58;;;;;;;7.93;4.35;;;1.60;99.90;;;;;;5049045;28;20065;-63
2022/03/07 05:19:23;;;;;;;12.98;4.03;;;1.50;99.90;;;;;;5051339;28;20397;-64
2022/03/07 05:21:49;;;;;;;7.85;3.55;;;1.50;99.90;;;;;;5050946;28;20048;-64
2022/03/07 05:24:15;;;;;;;9.25;4.60;;;1.40;99.90;;;;;;5047641;28;20045;-64
2022/03/07 05:26:40;;;;;;;12.55;4.50;;;1.40;99.90;;;;;;5044520;28;20033;-63
2022/03/07 05:29:07;;;;;;;8.15;3.30;;;1.40;99.90;;;;;;5048577;28;20127;-64
2022/03/07 05:31:32;;;;;;;7.90;3.90;;;1.40;99.90;;;;;;5031404;28;20579;-64
2022/03/07 05:33:58;;;;;;;8.93;3.78;;;1.40;99.90;;;;;;5049156;28;20052;-64
2022/03/07 05:36:23;;;;;;;10.63;3.70;;;1.40;99.90;;;;;;5039898;28;20045;-64
2022/03/07 05:38:49;;;;;;;6.85;3.65;;;1.40;99.90;;;;;;5045701;28;20056;-64
2022/03/07 05:41:15;;;;;;;5.68;3.72;;;1.40;99.90;;;;;;5050323;28;20040;-64
2022/03/07 05:43:40;;;;;;;5.75;3.55;;;1.40;99.90;;;;;;5050349;28;20044;-64
2022/03/07 05:46:07;;;;;;;6.95;3.53;;;1.40;99.90;;;;;;5040801;28;20095;-64
2022/03/07 05:48:32;;;;;;;10.70;3.72;;;1.40;99.90;;;;;;5032541;28;20053;-64
2022/03/07 05:50:58;;;;;;;6.93;4.28;;;1.40;99.90;;;;;;5050515;28;20060;-64
2022/03/07 05:53:24;;;;;;;11.00;3.97;;;1.30;99.90;;;;;;5046565;28;20038;-64
2022/03/07 05:55:51;;;;;;;8.38;3.95;;;1.30;99.90;;;;;;5040229;28;20046;-64
2022/03/07 05:58:16;;;;;;;7.07;3.50;;;1.30;99.90;;;;;;5038163;28;20041;-63
2022/03/07 06:00:42;;;;;;;7.47;3.88;;;1.30;99.90;;;;;;5046254;28;20123;-63
2022/03/07 06:03:08;;;;;;;6.97;3.75;;;1.30;99.90;;;;;;5041188;28;20083;-64
2022/03/07 06:05:33;;;;;;;7.85;3.33;;;1.30;99.90;;;;;;5044237;28;20574;-64
2022/03/07 06:08:00;;;;;;;11.02;4.70;;;1.20;99.90;;;;;;5035521;28;20467;-63
2022/03/07 06:10:26;;;;;;;9.00;3.33;;;1.20;99.90;;;;;;5036022;28;20413;-64
2022/03/07 06:12:51;;;;;;;6.18;3.47;;;1.20;99.90;;;;;;5031416;28;20037;-64
2022/03/07 06:15:18;;;;;;;11.15;4.45;;;1.20;99.90;;;;;;5037581;28;20095;-64
2022/03/07 06:17:51;;;;;;;7.63;3.40;;;1.30;99.90;;;;;;5038625;28;20037;-64
2022/03/07 06:20:17;;;;;;;8.55;3.97;;;1.20;99.90;;;;;;5039520;28;20536;-64
2022/03/07 06:22:43;;;;;;;7.68;3.38;;;1.20;99.90;;;;;;5041470;28;20067;-64
2022/03/07 06:25:09;;;;;;;10.15;3.80;;;1.20;99.90;;;;;;5033241;28;20127;-64
2022/03/07 06:27:34;;;;;;;8.30;3.85;;;1.20;99.90;;;;;;5045520;28;20043;-64
2022/03/07 06:30:00;;;;;;;9.20;3.92;;;1.20;99.90;;;;;;5050719;28;20079;-64
2022/03/07 06:32:26;;;;;;;8.07;3.58;;;1.20;99.90;;;;;;5028823;28;20094;-64
2022/03/07 06:34:52;;;;;;;5.25;3.03;;;1.20;99.90;;;;;;5030454;28;20053;-64
2022/03/07 06:37:17;;;;;;;5.60;3.58;;;1.10;99.90;;;;;;5035266;28;20037;-64
2022/03/07 06:39:43;;;;;;;12.13;4.75;;;1.20;99.90;;;;;;5039715;28;20084;-63
2022/03/07 06:42:09;;;;;;;7.28;3.88;;;1.20;99.90;;;;;;5035425;28;20474;-64
2022/03/07 06:44:39;;;;;;;9.48;3.80;;;1.20;99.90;;;;;;5036863;28;20036;-63
2022/03/07 06:47:05;;;;;;;6.00;3.90;;;1.20;99.90;;;;;;5045032;28;20045;-63
2022/03/07 06:49:31;;;;;;;7.10;3.90;;;1.20;99.90;;;;;;5032573;28;20084;-63
2022/03/07 06:51:57;;;;;;;6.55;3.95;;;1.20;99.90;;;;;;5050133;28;20088;-64
2022/03/07 06:54:22;;;;;;;6.20;3.97;;;1.20;99.90;;;;;;5035778;28;20076;-64
2022/03/07 06:56:48;;;;;;;9.00;3.90;;;1.20;99.90;;;;;;5042486;28;20040;-64
2022/03/07 06:59:13;;;;;;;12.05;4.20;;;1.30;99.90;;;;;;5040952;28;20060;-64
2022/03/07 07:01:39;;;;;;;10.43;5.13;;;1.40;99.90;;;;;;5039852;28;20075;-64
2022/03/07 07:04:04;;;;;;;11.77;3.97;;;1.50;99.90;;;;;;5031940;28;20088;-64
2022/03/07 07:06:30;;;;;;;9.15;4.88;;;1.50;99.90;;;;;;5029609;28;20084;-64
2022/03/07 07:08:55;;;;;;;7.75;4.25;;;1.50;99.90;;;;;;5030286;28;20041;-64
2022/03/07 07:11:21;;;;;;;7.22;4.50;;;1.60;99.90;;;;;;5029574;28;20128;-64
2022/03/07 07:13:47;;;;;;;9.32;4.50;;;1.60;99.90;;;;;;5028297;28;20048;-64
2022/03/07 07:16:12;;;;;;;13.50;4.32;;;1.70;99.90;;;;;;5039145;28;20045;-64
2022/03/07 07:18:38;;;;;;;9.48;4.45;;;1.70;99.90;;;;;;5049471;28;20041;-64
2022/03/07 07:21:04;;;;;;;8.60;3.88;;;1.80;99.90;;;;;;5044692;28;20090;-65
2022/03/07 07:23:30;;;;;;;8.65;3.65;;;1.80;99.90;;;;;;5033814;28;20041;-64
2022/03/07 07:25:55;;;;;;;8.38;4.05;;;1.90;99.90;;;;;;5034903;28;20057;-64
2022/03/07 07:28:21;;;;;;;12.27;4.32;;;1.90;99.90;;;;;;5031989;28;20037;-64
2022/03/07 07:30:47;;;;;;;13.00;3.95;;;2.00;99.90;;;;;;5042291;28;20045;-65
2022/03/07 07:33:13;;;;;;;7.68;3.88;;;2.00;99.90;;;;;;5041755;28;20052;-64
2022/03/07 07:35:39;;;;;;;9.80;4.57;;;2.10;99.90;;;;;;5028550;28;20084;-64
2022/03/07 07:38:05;;;;;;;13.07;4.13;;;2.20;99.90;;;;;;5036940;28;20048;-64
2022/03/07 07:40:31;;;;;;;13.32;4.93;;;2.30;99.90;;;;;;5033769;28;20048;-64
2022/03/07 07:42:57;;;;;;;15.18;4.43;;;2.40;99.90;;;;;;5045139;28;20045;-64
2022/03/07 07:45:24;;;;;;;8.35;3.60;;;2.50;99.90;;;;;;5047159;28;20090;-64
2022/03/07 07:47:49;;;;;;;12.45;5.45;;;2.50;99.90;;;;;;5044449;28;20071;-64
2022/03/07 07:50:15;;;;;;;10.82;4.50;;;2.60;99.90;;;;;;5032130;28;20033;-64
2022/03/07 07:52:41;;;;;;;12.60;5.20;;;2.70;99.90;;;;;;5048905;28;20115;-64
2022/03/07 07:55:06;;;;;;;11.02;4.20;;;2.70;99.90;;;;;;5040509;28;20107;-65
2022/03/07 07:57:32;;;;;;;9.98;3.60;;;2.90;99.90;;;;;;5033970;28;20524;-64
2022/03/07 07:59:58;;;;;;;12.02;3.40;;;3.00;99.90;;;;;;5047497;28;20049;-64
2022/03/07 08:02:23;;;;;;;11.25;3.63;;;3.10;99.90;;;;;;5036529;28;20033;-64
2022/03/07 08:04:51;;;;;;;6.70;3.67;;;3.20;99.90;;;;;;5034674;28;20491;-64
2022/03/07 08:07:18;;;;;;;7.13;2.97;;;3.30;99.90;;;;;;5040589;28;20048;-64
2022/03/07 08:09:43;;;;;;;5.72;3.40;;;3.30;99.90;;;;;;5042811;28;20128;-64
2022/03/07 08:12:10;;;;;;;14.68;3.40;;;3.40;99.90;;;;;;5046565;28;20132;-64
2022/03/07 08:14:36;;;;;;;8.25;3.53;;;3.40;99.90;;;;;;5048369;28;20049;-64
2022/03/07 08:17:03;;;;;;;5.10;3.63;;;3.40;99.90;;;;;;5046515;28;20430;-65
2022/03/07 08:19:29;;;;;;;4.50;2.95;;;3.50;99.90;;;;;;5028660;28;20099;-64
2022/03/07 08:21:54;;;;;;;15.88;4.68;;;3.50;99.90;;;;;;5028783;28;20049;-64
2022/03/07 08:24:20;;;;;;;9.68;3.40;;;3.50;99.90;;;;;;5027881;28;20457;-64
2022/03/07 08:26:46;;;;;;;9.88;4.35;;;3.50;99.90;;;;;;5028999;28;20049;-64
2022/03/07 08:29:12;;;;;;;6.45;3.72;;;3.50;99.90;;;;;;5043643;28;20048;-64
2022/03/07 08:31:37;;;;;;;7.95;4.50;;;3.60;99.90;;;;;;5026946;28;20116;-64
2022/03/07 08:34:03;;;;;;;7.32;3.70;;;3.60;99.90;;;;;;5028431;28;20084;-64
2022/03/07 08:36:31;;;;;;;8.80;3.58;;;3.60;99.90;;;;;;5028370;28;20081;-64
2022/03/07 08:38:56;;;;;;;6.05;3.25;;;3.70;99.90;;;;;;5026386;28;20080;-64
2022/03/07 08:41:22;;;;;;;5.60;2.90;;;3.80;99.90;;;;;;5045938;28;20075;-64
2022/03/07 08:43:49;;;;;;;5.03;2.63;;;3.80;99.90;;;;;;5048341;28;20116;-65
2022/03/07 08:46:15;;;;;;;7.40;2.88;;;3.90;99.90;;;;;;5047316;28;20041;-64
2022/03/07 08:48:40;;;;;;;9.85;3.30;;;3.90;99.90;;;;;;5040541;28;20056;-64
2022/03/07 08:51:06;;;;;;;6.15;3.72;;;4.00;99.90;;;;;;5037140;28;20433;-64
2022/03/07 08:53:32;;;;;;;5.78;3.17;;;4.00;99.90;;;;;;5041568;28;20053;-64
2022/03/07 08:55:57;;;;;;;6.55;3.97;;;4.10;99.90;;;;;;5043123;28;20053;-64
2022/03/07 08:58:23;;;;;;;10.43;4.22;;;4.10;99.90;;;;;;5027824;28;20068;-64
2022/03/07 09:00:48;;;;;;;6.97;3.72;;;4.20;99.90;;;;;;5032300;28;20532;-65
2022/03/07 09:03:14;;;;;;;11.52;4.63;;;4.20;99.90;;;;;;5032024;28;20037;-64
2022/03/07 09:05:39;;;;;;;5.88;3.83;;;4.30;99.90;;;;;;5042442;28;20509;-64
2022/03/07 09:08:05;;;;;;;10.13;4.20;;;4.30;99.90;;;;;;5039956;28;20110;-64
2022/03/07 09:10:31;;;;;;;9.60;5.13;;;4.40;99.90;;;;;;5048329;28;20123;-64
2022/03/07 09:12:56;;;;;;;14.88;4.60;;;4.40;99.90;;;;;;5039342;28;20050;-64
2022/03/07 09:15:22;;;;;;;9.35;5.57;;;4.40;99.90;;;;;;5044097;28;20049;-64
2022/03/07 09:17:47;;;;;;;11.70;4.78;;;4.50;99.90;;;;;;5046577;28;20061;-64
2022/03/07 09:20:16;;;;;;;8.55;3.92;;;4.60;99.90;;;;;;5048629;28;20094;-64
2022/03/07 09:22:42;;;;;;;14.15;4.68;;;4.60;99.90;;;;;;5041663;28;20124;-65
2022/03/07 09:25:08;;;;;;;10.00;3.72;;;4.60;99.90;;;;;;5044229;28;20128;-64
2022/03/07 09:27:35;;;;;;;6.35;3.13;;;4.70;99.90;;;;;;5051058;28;20081;-64
2022/03/07 09:30:00;;;;;;;9.02;3.15;;;4.80;99.90;;;;;;5046248;28;20444;-64
2022/03/07 09:32:26;;;;;;;3.63;2.08;;;4.80;99.90;;;;;;5037431;28;20053;-64
2022/03/07 09:34:51;;;;;;;6.35;2.20;;;4.90;99.90;;;;;;5046902;28;20124;-64
2022/03/07 09:37:17;;;;;;;6.85;2.95;;;5.50;99.90;;;;;;5051280;28;20499;-64
2022/03/07 09:39:43;;;;;;;8.18;3.45;;;6.50;99.90;;;;;;5032655;28;20451;-64
2022/03/07 09:42:09;;;;;;;10.45;2.53;;;7.30;99.90;;;;;;5039825;28;20056;-64
2022/03/07 09:44:35;;;;;;;5.88;2.05;;;8.30;99.90;;;;;;5041787;28;20046;-64
2022/03/07 09:47:02;;;;;;;4.00;1.83;;;8.90;99.90;;;;;;5044236;28;20041;-65
2022/03/07 09:49:28;;;;;;;10.07;2.53;;;9.50;99.90;;;;;;5045307;28;20496;-65
2022/03/07 09:51:55;;;;;;;9.45;2.53;;;9.80;99.90;;;;;;5049152;28;20056;-65
2022/03/07 09:54:22;;;;;;;6.10;1.83;;;10.40;99.90;;;;;;5044079;28;20056;-64
2022/03/07 09:56:48;;;;;;;5.93;2.17;;;10.70;99.90;;;;;;5034988;28;20048;-66
2022/03/07 09:59:16;;;;;;;8.68;2.28;;;11.00;99.90;;;;;;5039345;28;20045;-65
2022/03/07 10:01:42;;;;;;;6.53;2.47;;;11.00;99.90;;;;;;5048132;28;20029;-65
2022/03/07 10:04:12;;;;;;;8.52;2.20;;;11.30;99.90;;;;;;5035031;28;20418;-66
2022/03/07 10:06:47;;;;;;;3.60;2.08;;;11.50;99.90;;;;;;5037037;28;20041;-65
2022/03/07 10:09:23;;;;;;;4.25;2.05;;;11.70;99.90;;;;;;5030037;28;20447;-65
2022/03/07 10:12:02;;;;;;;5.97;2.22;;;11.30;99.90;;;;;;5048000;28;20423;-65
2022/03/07 10:14:42;;;;;;;6.95;2.55;;;11.10;99.90;;;;;;5039918;28;20474;-65
2022/03/07 10:17:18;;;;;;;11.27;2.85;;;10.80;99.90;;;;;;5043089;28;20041;-66
2022/03/07 10:19:45;;;;;;;6.35;1.83;;;10.50;99.90;;;;;;5048638;28;20500;-65
2022/03/07 10:22:16;;;;;;;7.43;2.42;;;10.40;99.90;;;;;;5029465;28;20060;-65
2022/03/07 10:24:41;;;;;;;9.10;2.60;;;10.20;99.90;;;;;;5029675;28;20098;-66
2022/03/07 10:27:07;;;;;;;5.35;2.67;;;10.20;99.90;;;;;;5030717;28;20038;-66
2022/03/07 10:29:32;;;;;;;7.45;2.60;;;10.20;99.90;;;;;;5031457;28;20045;-65
2022/03/07 10:32:01;;;;;;;5.35;2.97;;;10.10;99.90;;;;;;5031586;28;20623;-66
2022/03/07 10:34:28;;;;;;;8.63;2.38;;;9.90;99.90;;;;;;5034400;28;20383;-66
2022/03/07 10:36:53;;;;;;;3.35;2.05;;;10.00;99.90;;;;;;5046863;28;20038;-66
2022/03/07 10:39:25;;;;;;;6.78;2.50;;;9.80;99.90;;;;;;5039016;28;20039;-66
2022/03/07 10:41:51;;;;;;;6.03;2.40;;;9.80;99.90;;;;;;5035953;28;20037;-66
2022/03/07 10:44:34;;;;;;;3.88;2.28;;;9.90;99.90;;;;;;5034433;28;20052;-66
2022/03/07 10:47:10;;;;;;;8.27;3.05;;;10.00;99.90;;;;;;5044593;28;20057;-66
2022/03/07 10:49:49;;;;;;;7.40;2.35;;;10.20;99.90;;;;;;5049466;28;20036;-66
2022/03/07 10:52:15;;;;;;;7.50;2.05;;;10.10;99.90;;;;;;5037217;28;20084;-66
2022/03/07 10:54:41;;;;;;;3.67;2.28;;;10.00;99.90;;;;;;5030291;28;20187;-65
2022/03/07 10:57:08;;;;;;;4.68;1.95;;;10.50;99.90;;;;;;5040029;28;20116;-66
2022/03/07 10:59:37;;;;;;;5.80;2.72;;;10.10;99.90;;;;;;5031903;28;20045;-65
2022/03/07 11:02:06;;;;;;;2.63;1.92;;;10.30;99.90;;;;;;5028588;28;20056;-65
2022/03/07 11:04:33;;;;;;;6.95;2.10;;;10.60;99.90;;;;;;5031265;28;20124;-65
2022/03/07 11:06:59;;;;;;;5.30;1.75;;;10.80;99.90;;;;;;5031548;28;20049;-65
2022/03/07 11:09:27;;;;;;;6.47;1.70;;;11.00;99.90;;;;;;5032664;28;20053;-65
2022/03/07 11:11:52;;;;;;;2.85;1.70;;;11.10;99.90;;;;;;5041030;28;20763;-65
2022/03/07 11:14:19;;;;;;;4.95;1.50;;;11.20;99.90;;;;;;5027555;28;20038;-65
2022/03/07 11:16:47;;;;;;;3.55;1.70;;;11.60;99.90;;;;;;5029713;28;20049;-66
2022/03/07 11:19:15;;;;;;;11.05;2.95;;;11.50;99.90;;;;;;5039051;28;20079;-66
2022/03/07 11:21:41;;;;;;;5.05;2.20;;;11.30;99.90;;;;;;5031005;28;20603;-66
2022/03/07 11:24:07;;;;;;;6.03;2.15;;;11.50;99.90;;;;;;5028876;28;20072;-66
2022/03/07 11:26:33;;;;;;;4.10;2.03;;;12.00;99.90;;;;;;5028197;28;20045;-66
2022/03/07 11:28:58;;;;;;;5.93;2.47;;;12.20;99.90;;;;;;5029710;28;20450;-66
2022/03/07 11:31:26;;;;;;;7.53;2.30;;;12.00;99.90;;;;;;5029090;28;20052;-66
2022/03/07 11:33:54;;;;;;;6.18;1.80;;;11.90;99.90;;;;;;5030734;28;20045;-66
2022/03/07 11:36:23;;;;;;;2.88;1.55;;;11.70;99.90;;;;;;5034567;28;20041;-65
2022/03/07 11:39:00;;;;;;;7.05;2.22;;;11.90;99.90;;;;;;5041894;28;20056;-66
2022/03/07 11:41:27;;;;;;;5.10;1.52;;;12.00;99.90;;;;;;5044060;28;20551;-66
2022/03/07 11:43:56;;;;;;;5.57;2.35;;;12.10;99.90;;;;;;5029334;28;20041;-66
2022/03/07 11:46:33;;;;;;;3.22;2.38;;;12.00;99.90;;;;;;5030870;28;20042;-66
2022/03/07 11:49:00;;;;;;;3.28;1.48;;;12.50;99.90;;;;;;5028669;28;20866;-66
2022/03/07 11:51:28;;;;;;;4.53;2.30;;;12.70;99.90;;;;;;5030672;28;20136;-66
2022/03/07 11:53:55;;;;;;;6.05;1.80;;;13.00;99.90;;;;;;5028490;28;20103;-66
2022/03/07 11:56:34;;;;;;;2.95;1.50;;;13.20;99.90;;;;;;5030191;28;20088;-66
2022/03/07 11:59:02;;;;;;;5.50;1.98;;;13.20;99.90;;;;;;5033258;28;20052;-66
2022/03/07 12:01:30;;;;;;;4.25;1.55;;;13.20;99.90;;;;;;5028415;28;20041;-66
2022/03/07 12:04:07;;;;;;;4.15;1.40;;;12.70;99.90;;;;;;5034598;28;20057;-66
2022/03/07 12:06:47;;;;;;;5.28;1.70;;;12.30;99.90;;;;;;5033707;28;20079;-66
2022/03/07 12:09:27;;;;;;;6.82;1.80;;;11.90;99.90;;;;;;5038360;28;20053;-66
2022/03/07 12:12:02;;;;;;;5.15;1.88;;;11.60;99.90;;;;;;5030628;28;20049;-66
2022/03/07 12:14:36;;;;;;;4.70;1.90;;;11.20;99.90;;;;;;5030654;28;20375;-67
2022/03/07 12:17:11;;;;;;;4.50;1.90;;;10.90;99.90;;;;;;5027765;28;20042;-67
2022/03/07 12:19:37;;;;;;;4.43;1.52;;;11.10;99.90;;;;;;5029276;28;20045;-66
2022/03/07 12:22:14;;;;;;;3.80;1.90;;;11.20;99.90;;;;;;5029265;28;20041;-66
2022/03/07 12:24:40;;;;;;;4.20;1.80;;;11.70;99.90;;;;;;5027987;28;20042;-66
2022/03/07 12:27:07;;;;;;;8.93;1.98;;;12.50;99.90;;;;;;5031023;28;20037;-66
2022/03/07 12:29:33;;;;;;;4.35;2.38;;;13.10;99.90;;;;;;5036211;28;20049;-66
2022/03/07 12:32:00;;;;;;;4.80;1.73;;;13.40;99.90;;;;;;5029054;28;20044;-66
2022/03/07 12:34:27;;;;;;;10.48;2.95;;;13.70;99.60;;;;;;5027727;28;20894;-66
2022/03/07 12:37:11;;;;;;;5.45;1.88;;;14.20;99.90;;;;;;5031528;28;20061;-66
2022/03/07 12:39:54;;;;;;;5.18;1.67;;;13.50;98.90;;;;;;5027810;28;20045;-66
2022/03/07 12:42:25;;;;;;;3.15;1.67;;;13.00;99.90;;;;;;5040253;28;20057;-66
2022/03/07 12:44:51;;;;;;;3.30;1.65;;;13.00;98.10;;;;;;5045797;28;20139;-66
2022/03/07 12:47:23;;;;;;;4.57;1.50;;;13.20;99.90;;;;;;5047417;28;20041;-67
2022/03/07 12:49:50;;;;;;;4.15;1.65;;;13.90;98.20;;;;;;5038348;28;20041;-66
2022/03/07 12:52:26;;;;;;;4.90;1.80;;;14.40;99.50;;;;;;5033672;28;20132;-66